Time;durP1;ratioP1;P1;durP2;ratioP2;P2;SDS_P1;SDS_P2;PMS_P1;PMS_P2;Temp;Humidity;BMP_temperature;BMP_pressure;BME280_temperature;BME280_humidity;BME280_pressure;Samples;Min_cycle;Max_cycle;Signal;HPM_P1;HPM_P2
2022/09/11 00:01:27;;;;;;;1.60;1.10;;;17.00;99.90;;;;;;5095209;28;20411;-69
2022/09/11 00:03:55;;;;;;;2.00;1.20;;;17.10;99.90;;;;;;5095365;28;20498;-68
2022/09/11 00:06:22;;;;;;;2.13;1.30;;;17.10;99.90;;;;;;5095157;28;20773;-69
2022/09/11 00:08:52;;;;;;;2.80;1.40;;;17.00;99.90;;;;;;5095393;28;20437;-69
2022/09/11 00:11:19;;;;;;;1.93;1.40;;;16.90;99.90;;;;;;5094763;28;20447;-69
2022/09/11 00:13:48;;;;;;;1.00;1.00;;;16.90;99.90;;;;;;5094852;28;20451;-69
2022/09/11 00:16:25;;;;;;;2.00;1.30;;;17.10;99.90;;;;;;5094336;28;20403;-69
2022/09/11 00:18:52;;;;;;;1.87;1.50;;;17.00;99.90;;;;;;5093829;28;20450;-69
2022/09/11 00:21:18;;;;;;;2.40;1.40;;;17.10;99.90;;;;;;5095123;28;20903;-69
2022/09/11 00:23:43;;;;;;;1.93;1.17;;;17.10;99.90;;;;;;5094770;28;20435;-69
2022/09/11 00:26:09;;;;;;;1.40;1.20;;;17.20;99.90;;;;;;5093459;28;20177;-69
2022/09/11 00:28:35;;;;;;;2.93;1.17;;;17.30;99.90;;;;;;5094722;28;20173;-69
2022/09/11 00:31:14;;;;;;;1.50;1.40;;;17.10;99.90;;;;;;5095099;28;20499;-69
2022/09/11 00:33:40;;;;;;;1.60;1.33;;;17.20;99.90;;;;;;5094513;28;20450;-69
2022/09/11 00:36:19;;;;;;;1.60;1.10;;;17.20;99.90;;;;;;5094769;28;20460;-69
2022/09/11 00:38:46;;;;;;;1.93;1.33;;;17.40;99.90;;;;;;5093688;28;20502;-69
2022/09/11 00:41:22;;;;;;;1.83;1.27;;;17.20;99.90;;;;;;5076314;28;20963;-69
2022/09/11 00:43:54;;;;;;;1.37;1.27;;;17.00;99.90;;;;;;5074462;28;20426;-69
2022/09/11 00:46:20;;;;;;;10.93;1.50;;;17.10;99.90;;;;;;5074134;28;20416;-69
2022/09/11 00:48:49;;;;;;;3.10;1.40;;;16.90;99.90;;;;;;5075081;28;20487;-69
2022/09/11 00:51:28;;;;;;;2.40;1.30;;;17.00;99.90;;;;;;5073873;28;20463;-69
2022/09/11 00:53:57;;;;;;;2.27;1.40;;;17.00;99.90;;;;;;5073803;28;20439;-69
2022/09/11 00:56:27;;;;;;;3.50;1.53;;;17.10;99.90;;;;;;5087578;28;20965;-69
2022/09/11 00:58:54;;;;;;;2.63;1.43;;;17.10;99.90;;;;;;5094244;28;20464;-69
2022/09/11 01:01:20;;;;;;;2.83;1.30;;;17.10;99.90;;;;;;5094646;28;20402;-69
2022/09/11 01:03:46;;;;;;;1.83;1.73;;;17.10;99.90;;;;;;5095119;28;20945;-69
2022/09/11 01:06:13;;;;;;;2.20;1.00;;;17.10;99.90;;;;;;5097465;28;20414;-69
2022/09/11 01:08:39;;;;;;;2.07;1.30;;;17.10;99.90;;;;;;5096876;28;20169;-69
2022/09/11 01:11:13;;;;;;;2.27;1.40;;;17.00;99.90;;;;;;5097464;28;20436;-69
2022/09/11 01:13:57;;;;;;;2.10;1.20;;;16.80;99.90;;;;;;5098379;28;20203;-69
2022/09/11 01:16:36;;;;;;;2.33;1.30;;;16.90;99.90;;;;;;5095700;28;20420;-69
2022/09/11 01:19:13;;;;;;;4.47;1.77;;;16.90;99.90;;;;;;5110080;28;20927;-69
2022/09/11 01:22:00;;;;;;;2.73;1.40;;;16.80;99.90;;;;;;5103507;28;20390;-69
2022/09/11 01:24:40;;;;;;;4.43;1.60;;;16.70;99.90;;;;;;5094178;28;20426;-69
2022/09/11 01:27:30;;;;;;;3.77;1.50;;;16.70;99.90;;;;;;5093045;28;20391;-69
2022/09/11 01:30:05;;;;;;;2.30;1.30;;;16.90;99.90;;;;;;5093577;28;20395;-69
2022/09/11 01:32:43;;;;;;;1.53;1.40;;;17.00;99.90;;;;;;5093710;28;20939;-69
2022/09/11 01:35:19;;;;;;;2.50;1.27;;;17.00;99.90;;;;;;5093628;28;20460;-69
2022/09/11 01:37:58;;;;;;;1.73;1.37;;;17.00;99.90;;;;;;5093686;28;20379;-69
2022/09/11 01:40:33;;;;;;;2.37;1.30;;;17.10;99.90;;;;;;5093187;28;20883;-70
2022/09/11 01:43:05;;;;;;;2.20;1.80;;;17.10;99.90;;;;;;5093644;28;20394;-69
2022/09/11 01:45:36;;;;;;;2.30;1.67;;;17.10;99.90;;;;;;5093377;28;20476;-69
2022/09/11 01:48:02;;;;;;;2.30;1.80;;;17.20;99.90;;;;;;5093347;28;20383;-68
2022/09/11 01:50:31;;;;;;;1.63;1.30;;;17.20;99.90;;;;;;5093689;28;20399;-69
2022/09/11 01:53:01;;;;;;;2.07;1.50;;;17.10;99.90;;;;;;5093274;28;20446;-68
2022/09/11 01:55:40;;;;;;;1.50;1.40;;;17.10;99.90;;;;;;5092921;28;20887;-69
2022/09/11 01:58:12;;;;;;;3.87;1.60;;;17.00;99.90;;;;;;5093974;28;20929;-68
2022/09/11 02:00:39;;;;;;;1.50;1.40;;;16.90;99.90;;;;;;5093337;28;20430;-69
2022/09/11 02:03:27;;;;;;;1.93;1.27;;;16.80;99.90;;;;;;5092786;28;20427;-69
2022/09/11 02:06:03;;;;;;;2.60;1.87;;;16.90;99.90;;;;;;5093524;28;20463;-69
2022/09/11 02:09:06;;;;;;;2.33;1.80;;;16.70;99.90;;;;;;5093582;28;20418;-69
2022/09/11 02:11:36;;;;;;;2.70;1.70;;;16.60;99.90;;;;;;5010891;28;20832;-69
2022/09/11 02:14:24;;;;;;;3.50;1.70;;;16.70;99.90;;;;;;5077799;28;20492;-68
2022/09/11 02:16:55;;;;;;;2.13;1.70;;;16.70;99.90;;;;;;5092944;28;20394;-68
2022/09/11 02:19:25;;;;;;;2.67;1.90;;;16.60;99.90;;;;;;5093063;28;20402;-68
2022/09/11 02:21:51;;;;;;;2.90;1.90;;;16.60;99.90;;;;;;5093276;28;20396;-68
2022/09/11 02:24:18;;;;;;;3.27;2.23;;;16.60;99.90;;;;;;5093690;28;20431;-68
2022/09/11 02:26:49;;;;;;;1.97;1.70;;;16.50;99.90;;;;;;5092220;28;20549;-68
2022/09/11 02:29:14;;;;;;;1.40;1.30;;;16.50;99.90;;;;;;5093415;28;20384;-69
2022/09/11 02:31:41;;;;;;;2.37;1.90;;;16.60;99.90;;;;;;5074799;28;20480;-68
2022/09/11 02:34:10;;;;;;;2.60;1.80;;;16.60;99.90;;;;;;5091394;28;20208;-68
2022/09/11 02:36:55;;;;;;;3.67;1.70;;;16.70;99.90;;;;;;5093244;28;20440;-68
2022/09/11 02:39:33;;;;;;;2.40;1.90;;;16.70;99.90;;;;;;5093482;28;20465;-69
2022/09/11 02:42:21;;;;;;;3.30;2.17;;;16.90;99.90;;;;;;5092350;28;20379;-68
2022/09/11 02:45:11;;;;;;;3.57;1.70;;;16.80;99.90;;;;;;5078809;28;20450;-68
2022/09/11 02:48:06;;;;;;;4.23;1.70;;;16.80;99.90;;;;;;5079186;28;20919;-69
2022/09/11 02:50:46;;;;;;;2.90;1.80;;;16.70;99.90;;;;;;5093368;28;20419;-69
2022/09/11 02:53:31;;;;;;;1.90;1.70;;;16.90;99.90;;;;;;5093065;28;20514;-69
2022/09/11 02:56:22;;;;;;;2.60;2.10;;;16.80;99.90;;;;;;5092774;28;20473;-68
2022/09/11 02:58:49;;;;;;;1.97;1.70;;;16.80;99.90;;;;;;5092707;28;20470;-68
2022/09/11 03:01:15;;;;;;;1.97;1.67;;;16.70;99.90;;;;;;5092235;28;20938;-69
2022/09/11 03:03:43;;;;;;;2.10;1.90;;;16.70;99.90;;;;;;5092202;28;20430;-69
2022/09/11 03:06:13;;;;;;;2.03;1.83;;;16.80;99.90;;;;;;5092990;28;20636;-68
2022/09/11 03:08:39;;;;;;;2.17;1.97;;;16.80;99.90;;;;;;5092672;28;20803;-68
2022/09/11 03:11:05;;;;;;;2.73;2.07;;;16.80;99.90;;;;;;5092574;28;20575;-68
2022/09/11 03:13:32;;;;;;;3.97;2.30;;;16.70;99.90;;;;;;5092126;28;20776;-68
2022/09/11 03:16:00;;;;;;;4.70;2.60;;;16.80;99.90;;;;;;5095712;28;20157;-68
2022/09/11 03:18:25;;;;;;;2.13;1.73;;;16.80;99.90;;;;;;5095873;28;20418;-68
2022/09/11 03:20:51;;;;;;;3.40;2.00;;;16.80;99.90;;;;;;5095972;28;20414;-68
2022/09/11 03:23:17;;;;;;;2.47;1.77;;;17.00;99.90;;;;;;5095867;28;20176;-69
2022/09/11 03:25:42;;;;;;;3.40;2.23;;;16.90;99.90;;;;;;5095838;28;20207;-68
2022/09/11 03:28:08;;;;;;;2.17;1.87;;;17.00;99.90;;;;;;5077874;28;20188;-68
2022/09/11 03:30:33;;;;;;;2.43;2.10;;;17.00;99.90;;;;;;5092507;28;20177;-68
2022/09/11 03:32:59;;;;;;;2.53;1.80;;;16.90;99.90;;;;;;5086833;28;20199;-69
2022/09/11 03:35:26;;;;;;;3.50;2.10;;;16.70;99.90;;;;;;5095620;28;20581;-68
2022/09/11 03:37:51;;;;;;;2.70;2.43;;;16.80;99.90;;;;;;5095956;28;20664;-69
2022/09/11 03:40:19;;;;;;;2.10;1.90;;;16.60;99.90;;;;;;5095615;28;20432;-68
2022/09/11 03:42:44;;;;;;;3.07;2.33;;;16.80;99.90;;;;;;5095280;28;20400;-68
2022/09/11 03:45:10;;;;;;;2.73;2.20;;;16.80;99.90;;;;;;5095172;28;20429;-68
2022/09/11 03:47:36;;;;;;;2.20;1.97;;;16.80;99.90;;;;;;5095719;28;20180;-68
2022/09/11 03:50:02;;;;;;;2.93;2.20;;;16.90;99.90;;;;;;5095433;28;20921;-68
2022/09/11 03:52:29;;;;;;;2.10;1.90;;;16.80;99.90;;;;;;5095233;28;20667;-68
2022/09/11 03:54:54;;;;;;;4.40;2.37;;;16.80;99.90;;;;;;5095241;28;20231;-68
2022/09/11 03:57:20;;;;;;;3.10;2.63;;;16.70;99.90;;;;;;5095103;28;20404;-68
2022/09/11 03:59:45;;;;;;;4.30;2.33;;;16.60;99.90;;;;;;5095365;28;20624;-67
2022/09/11 04:02:11;;;;;;;2.33;2.13;;;16.60;99.90;;;;;;5077102;28;20268;-69
2022/09/11 04:04:37;;;;;;;2.50;2.30;;;16.60;99.90;;;;;;5095083;28;20201;-69
2022/09/11 04:07:02;;;;;;;4.57;2.43;;;16.60;99.90;;;;;;5095299;28;20198;-69
2022/09/11 04:09:28;;;;;;;2.93;2.63;;;16.70;99.90;;;;;;5095352;28;20175;-69
2022/09/11 04:11:54;;;;;;;2.80;2.60;;;16.60;99.90;;;;;;5095167;28;20249;-68
2022/09/11 04:14:21;;;;;;;3.80;3.50;;;16.60;99.90;;;;;;5093952;28;20894;-69
2022/09/11 04:16:47;;;;;;;3.00;2.80;;;16.60;99.90;;;;;;5095030;28;20158;-69
2022/09/11 04:19:13;;;;;;;6.03;3.10;;;16.60;99.90;;;;;;5095209;28;20977;-69
2022/09/11 04:21:39;;;;;;;3.87;3.43;;;16.60;99.90;;;;;;5093671;28;20434;-69
2022/09/11 04:24:05;;;;;;;3.40;3.03;;;16.70;99.90;;;;;;5095127;28;20459;-69
2022/09/11 04:26:32;;;;;;;3.57;3.27;;;16.60;99.90;;;;;;5093870;28;20229;-69
2022/09/11 04:28:59;;;;;;;4.33;3.20;;;16.60;99.90;;;;;;5075876;28;20259;-69
2022/09/11 04:31:26;;;;;;;7.23;3.57;;;16.60;99.90;;;;;;5094544;28;20439;-69
2022/09/11 04:33:53;;;;;;;3.40;3.10;;;16.70;99.90;;;;;;5094738;28;20830;-69
2022/09/11 04:36:20;;;;;;;7.13;3.80;;;16.80;99.90;;;;;;5094686;28;20421;-69
2022/09/11 04:38:46;;;;;;;4.27;3.20;;;16.80;99.90;;;;;;5094782;28;20403;-69
2022/09/11 04:41:13;;;;;;;4.40;4.00;;;16.80;99.90;;;;;;5094549;28;20908;-69
2022/09/11 04:43:40;;;;;;;3.83;3.40;;;16.80;99.90;;;;;;5093881;28;20432;-68
2022/09/11 04:46:09;;;;;;;4.37;3.97;;;16.90;99.90;;;;;;5094715;28;20403;-69
2022/09/11 04:48:37;;;;;;;3.90;3.60;;;16.80;99.90;;;;;;5094377;28;20497;-69
2022/09/11 04:51:07;;;;;;;4.07;3.77;;;16.90;99.90;;;;;;5094280;28;20406;-69
2022/09/11 04:53:36;;;;;;;4.37;3.60;;;16.90;99.90;;;;;;5093077;28;20451;-69
2022/09/11 04:56:08;;;;;;;3.63;3.33;;;16.90;99.90;;;;;;5094394;28;20403;-69
2022/09/11 04:58:35;;;;;;;9.90;4.90;;;16.90;99.90;;;;;;5093858;28;20888;-69
2022/09/11 05:01:07;;;;;;;5.13;4.73;;;17.00;99.90;;;;;;5094324;28;20406;-69
2022/09/11 05:03:32;;;;;;;4.50;4.20;;;17.10;99.90;;;;;;5093964;28;20387;-69
2022/09/11 05:05:58;;;;;;;4.90;4.47;;;17.10;99.90;;;;;;5093965;28;20481;-69
2022/09/11 05:08:25;;;;;;;4.87;4.40;;;17.20;99.90;;;;;;5093991;28;20164;-69
2022/09/11 05:10:51;;;;;;;5.53;4.70;;;17.20;99.90;;;;;;5093843;28;20711;-69
2022/09/11 05:13:17;;;;;;;4.77;4.37;;;17.10;99.90;;;;;;5091918;28;20462;-69
2022/09/11 05:15:43;;;;;;;6.40;4.17;;;17.00;99.90;;;;;;5094110;28;20410;-69
2022/09/11 05:18:10;;;;;;;4.83;4.40;;;17.10;99.90;;;;;;5094036;28;20580;-69
2022/09/11 05:20:35;;;;;;;5.47;5.03;;;17.20;99.90;;;;;;5093727;28;20177;-69
2022/09/11 05:23:01;;;;;;;6.20;5.60;;;17.10;99.90;;;;;;5094030;28;20484;-69
2022/09/11 05:25:30;;;;;;;5.10;4.70;;;17.10;99.90;;;;;;5093875;28;20196;-69
2022/09/11 05:27:56;;;;;;;5.30;4.90;;;17.10;99.90;;;;;;5092571;28;20177;-69
2022/09/11 05:30:22;;;;;;;4.77;4.37;;;17.20;99.90;;;;;;5093647;28;20425;-69
2022/09/11 05:32:53;;;;;;;5.60;5.00;;;17.20;99.90;;;;;;5093427;28;20200;-69
2022/09/11 05:35:19;;;;;;;6.43;3.90;;;17.30;99.90;;;;;;5093516;28;20201;-69
2022/09/11 05:37:46;;;;;;;5.77;5.33;;;17.40;99.90;;;;;;5093780;28;20899;-69
2022/09/11 05:40:11;;;;;;;5.63;5.13;;;17.40;99.90;;;;;;5093996;28;20891;-69
2022/09/11 05:42:37;;;;;;;8.63;5.23;;;17.20;99.90;;;;;;5093044;28;20419;-69
2022/09/11 05:45:04;;;;;;;4.33;3.90;;;17.30;99.90;;;;;;5093560;28;20200;-69
2022/09/11 05:47:29;;;;;;;4.50;4.10;;;17.40;99.90;;;;;;5093534;28;20463;-69
2022/09/11 05:49:55;;;;;;;6.20;4.47;;;17.50;99.90;;;;;;5093285;28;20415;-69
2022/09/11 05:52:21;;;;;;;4.87;4.03;;;17.40;99.90;;;;;;5093168;28;20197;-69
2022/09/11 05:54:46;;;;;;;4.70;3.90;;;17.50;99.90;;;;;;5093205;28;20202;-69
2022/09/11 05:57:12;;;;;;;5.50;5.00;;;17.50;99.90;;;;;;5092723;28;20411;-70
2022/09/11 05:59:38;;;;;;;5.03;4.57;;;17.70;99.90;;;;;;5093450;28;20179;-69
2022/09/11 06:02:03;;;;;;;6.27;5.17;;;17.50;99.90;;;;;;5093152;28;20230;-69
2022/09/11 06:04:29;;;;;;;5.07;4.53;;;17.60;99.90;;;;;;5092892;28;20189;-69
2022/09/11 06:06:54;;;;;;;5.23;4.83;;;17.50;99.90;;;;;;5093098;28;20209;-69
2022/09/11 06:09:20;;;;;;;5.40;4.93;;;17.50;99.90;;;;;;5093255;28;20172;-69
2022/09/11 06:11:46;;;;;;;5.13;4.73;;;17.50;99.90;;;;;;5093039;28;20189;-70
2022/09/11 06:14:12;;;;;;;6.27;5.03;;;17.60;99.90;;;;;;5092888;28;20208;-69
2022/09/11 06:16:37;;;;;;;5.17;4.70;;;17.80;99.90;;;;;;5093246;28;20173;-69
2022/09/11 06:19:04;;;;;;;6.27;5.77;;;18.00;99.90;;;;;;5093215;28;20410;-69
2022/09/11 06:21:30;;;;;;;6.73;5.70;;;17.80;99.90;;;;;;5093093;28;20613;-69
2022/09/11 06:23:56;;;;;;;6.30;5.70;;;17.50;99.90;;;;;;5087497;28;20483;-69
2022/09/11 06:26:24;;;;;;;8.10;5.57;;;17.50;99.90;;;;;;5079334;28;20182;-69
2022/09/11 06:28:50;;;;;;;5.73;5.23;;;17.50;99.90;;;;;;5088310;28;20419;-68
2022/09/11 06:33:52;;;;;;;5.53;5.13;;;17.70;99.90;;;;;;5240241;22;20475;-67
2022/09/11 06:36:23;;;;;;;6.80;6.10;;;17.70;99.90;;;;;;5066480;28;20410;-67
2022/09/11 06:38:56;;;;;;;6.40;5.90;;;17.60;99.90;;;;;;5072741;28;20369;-67
2022/09/11 06:41:27;;;;;;;7.40;6.53;;;17.60;99.90;;;;;;5072734;28;20886;-67
2022/09/11 06:43:53;;;;;;;6.70;6.00;;;17.60;99.90;;;;;;5086023;28;20911;-68
2022/09/11 06:46:21;;;;;;;7.30;6.70;;;17.60;99.90;;;;;;5077032;28;20410;-67
2022/09/11 06:48:49;;;;;;;6.23;5.63;;;17.50;99.90;;;;;;5072670;28;20170;-68
2022/09/11 06:51:16;;;;;;;7.30;5.43;;;17.70;99.90;;;;;;5074924;28;20919;-69
2022/09/11 06:53:43;;;;;;;7.40;6.70;;;17.80;99.90;;;;;;5076044;28;20431;-67
2022/09/11 06:56:13;;;;;;;6.67;6.00;;;17.80;99.90;;;;;;5075970;28;20517;-68
2022/09/11 06:58:40;;;;;;;6.43;5.83;;;17.90;99.90;;;;;;5075436;28;20920;-68
2022/09/11 07:01:10;;;;;;;6.70;6.20;;;17.90;99.90;;;;;;5075765;28;20408;-68
2022/09/11 07:03:36;;;;;;;7.00;6.50;;;18.00;99.90;;;;;;5075881;28;20412;-68
2022/09/11 07:06:02;;;;;;;6.30;5.80;;;18.00;99.90;;;;;;5075661;28;20400;-68
2022/09/11 07:08:28;;;;;;;7.60;6.80;;;18.10;99.90;;;;;;5075797;28;20577;-68
2022/09/11 07:10:54;;;;;;;7.40;6.70;;;18.00;99.90;;;;;;5075500;28;20483;-68
2022/09/11 07:13:19;;;;;;;6.87;6.20;;;17.80;99.90;;;;;;5075395;28;20458;-68
2022/09/11 07:15:48;;;;;;;6.40;5.93;;;17.80;99.90;;;;;;5075792;28;20166;-68
2022/09/11 07:18:14;;;;;;;7.23;6.53;;;17.90;99.90;;;;;;5075804;28;20522;-68
2022/09/11 07:20:40;;;;;;;6.33;5.83;;;18.00;99.90;;;;;;5080596;28;20397;-68
2022/09/11 07:23:09;;;;;;;7.00;6.30;;;18.10;99.90;;;;;;5079545;28;20230;-68
2022/09/11 07:25:39;;;;;;;7.73;7.10;;;18.10;99.90;;;;;;5075522;28;20928;-68
2022/09/11 07:28:05;;;;;;;7.60;7.00;;;18.10;99.90;;;;;;5074076;28;20423;-68
2022/09/11 07:30:31;;;;;;;8.57;7.20;;;18.00;99.90;;;;;;5075312;28;20404;-68
2022/09/11 07:32:57;;;;;;;7.77;7.03;;;18.00;99.90;;;;;;5075345;28;20259;-68
2022/09/11 07:35:22;;;;;;;7.10;6.50;;;18.10;99.90;;;;;;5074954;28;20910;-68
2022/09/11 07:37:48;;;;;;;7.43;6.80;;;18.20;99.90;;;;;;5075283;28;20638;-68
2022/09/11 07:40:15;;;;;;;7.87;7.17;;;18.30;99.90;;;;;;5075035;28;20186;-68
2022/09/11 07:42:40;;;;;;;7.40;6.77;;;18.40;99.90;;;;;;5074346;28;20182;-69
2022/09/11 07:45:06;;;;;;;7.87;7.17;;;18.40;99.90;;;;;;5075026;28;20869;-68
2022/09/11 07:47:35;;;;;;;8.77;7.97;;;18.50;99.90;;;;;;5074828;28;20522;-68
2022/09/11 07:50:01;;;;;;;7.70;7.00;;;18.40;99.90;;;;;;5075598;28;20458;-68
2022/09/11 07:52:26;;;;;;;8.37;7.57;;;18.50;99.90;;;;;;5073357;28;20456;-68
2022/09/11 07:54:52;;;;;;;10.93;7.20;;;18.40;99.90;;;;;;5076085;28;20181;-68
2022/09/11 07:57:18;;;;;;;8.60;7.70;;;18.30;99.90;;;;;;5075076;28;20280;-68
2022/09/11 07:59:45;;;;;;;7.80;7.00;;;18.20;99.90;;;;;;5075348;28;20174;-68
2022/09/11 08:02:11;;;;;;;7.83;7.13;;;18.20;99.90;;;;;;5074694;28;20412;-68
2022/09/11 08:04:37;;;;;;;6.87;6.20;;;18.20;99.90;;;;;;5075158;28;20416;-68
2022/09/11 08:07:02;;;;;;;7.20;6.60;;;18.40;99.90;;;;;;5074995;28;20920;-68
2022/09/11 08:09:28;;;;;;;7.40;6.80;;;18.50;99.90;;;;;;5074580;28;20220;-68
2022/09/11 08:11:57;;;;;;;6.47;5.97;;;18.50;99.90;;;;;;5074579;28;20659;-68
2022/09/11 08:14:24;;;;;;;8.20;7.40;;;18.50;99.90;;;;;;5074746;28;20178;-68
2022/09/11 08:16:49;;;;;;;7.30;6.70;;;18.50;99.90;;;;;;5074733;28;20458;-68
2022/09/11 08:19:17;;;;;;;6.87;6.20;;;18.70;99.90;;;;;;5074645;28;20397;-68
2022/09/11 08:21:43;;;;;;;9.00;7.77;;;18.70;99.90;;;;;;5073648;28;20784;-68
2022/09/11 08:24:11;;;;;;;6.93;6.33;;;18.70;99.90;;;;;;5074125;28;20428;-68
2022/09/11 08:26:37;;;;;;;8.07;7.40;;;18.50;99.90;;;;;;5074445;28;20221;-68
2022/09/11 08:29:02;;;;;;;8.20;7.27;;;18.50;99.90;;;;;;5072691;28;20977;-68
2022/09/11 08:31:28;;;;;;;7.77;7.17;;;18.60;99.90;;;;;;5074378;28;20285;-68
2022/09/11 08:33:55;;;;;;;8.10;7.30;;;18.70;99.90;;;;;;5074357;28;20293;-68
2022/09/11 08:36:21;;;;;;;7.93;7.20;;;18.90;99.90;;;;;;5074525;28;20826;-68
2022/09/11 08:38:47;;;;;;;7.07;6.47;;;19.00;99.90;;;;;;5074534;28;20454;-68
2022/09/11 08:41:33;;;;;;;7.97;7.17;;;19.20;99.90;;;;;;5073063;28;20780;-68
2022/09/11 08:44:10;;;;;;;6.87;6.20;;;19.40;99.90;;;;;;5073680;28;20420;-68
2022/09/11 08:46:40;;;;;;;8.87;7.63;;;19.80;99.90;;;;;;5074338;28;20451;-68
2022/09/11 08:49:29;;;;;;;6.60;6.10;;;20.00;99.90;;;;;;5074102;28;20456;-68
2022/09/11 08:51:59;;;;;;;11.97;7.80;;;19.60;99.90;;;;;;5073957;28;20460;-68
2022/09/11 08:54:30;;;;;;;7.63;7.03;;;19.30;99.90;;;;;;5074393;28;20416;-68
2022/09/11 08:57:27;;;;;;;7.40;6.80;;;19.30;99.90;;;;;;5074375;28;20479;-68
2022/09/11 09:00:10;;;;;;;7.53;6.83;;;19.30;99.90;;;;;;5053533;28;20400;-69
2022/09/11 09:03:02;;;;;;;8.10;6.83;;;19.20;99.90;;;;;;5054175;28;20421;-68
2022/09/11 09:05:33;;;;;;;7.23;6.53;;;18.80;99.90;;;;;;5054033;28;20385;-68
2022/09/11 09:08:36;;;;;;;7.10;6.40;;;18.80;99.90;;;;;;5053802;28;20787;-68
2022/09/11 09:11:13;;;;;;;7.37;6.73;;;19.00;99.90;;;;;;5054230;28;20392;-68
2022/09/11 09:13:56;;;;;;;6.50;5.90;;;19.30;99.90;;;;;;5052197;28;20429;-68
2022/09/11 09:16:48;;;;;;;6.93;6.33;;;19.40;99.90;;;;;;5053748;28;20386;-68
2022/09/11 09:19:37;;;;;;;7.20;6.67;;;19.40;99.90;;;;;;5053512;28;20397;-68
2022/09/11 09:22:30;;;;;;;7.77;6.30;;;19.80;99.90;;;;;;5053280;28;20405;-68
2022/09/11 09:25:00;;;;;;;5.47;5.07;;;19.90;99.90;;;;;;5053510;28;20483;-68
2022/09/11 09:27:59;;;;;;;6.07;5.57;;;20.00;99.90;;;;;;5075287;28;20428;-68
2022/09/11 09:30:28;;;;;;;7.00;6.30;;;20.00;99.90;;;;;;5053477;28;20918;-68
2022/09/11 09:33:05;;;;;;;5.80;5.30;;;20.20;99.90;;;;;;5053413;28;20646;-68
2022/09/11 09:35:39;;;;;;;5.80;5.30;;;20.60;99.90;;;;;;5053318;28;20842;-68
2022/09/11 09:38:11;;;;;;;4.93;4.53;;;20.90;99.90;;;;;;5053263;28;20386;-69
2022/09/11 09:40:38;;;;;;;4.27;3.77;;;21.20;99.90;;;;;;5053267;28;20397;-69
2022/09/11 09:43:18;;;;;;;4.37;3.97;;;20.90;99.90;;;;;;5052628;28;20794;-68
2022/09/11 09:45:49;;;;;;;4.90;4.40;;;20.90;99.90;;;;;;5052957;28;20389;-68
2022/09/11 09:48:15;;;;;;;5.27;4.77;;;20.90;99.90;;;;;;5052983;28;20397;-68
2022/09/11 09:50:45;;;;;;;5.70;5.20;;;20.70;99.90;;;;;;5052929;28;20520;-69
2022/09/11 09:53:14;;;;;;;6.70;5.87;;;20.50;99.90;;;;;;5052801;28;20198;-68
2022/09/11 09:55:39;;;;;;;5.20;4.80;;;20.50;99.90;;;;;;5052936;28;20397;-68
2022/09/11 09:58:06;;;;;;;6.83;6.13;;;20.50;99.90;;;;;;5056655;28;20409;-68
2022/09/11 10:00:35;;;;;;;5.60;5.20;;;20.30;99.90;;;;;;5073165;28;20546;-68
2022/09/11 10:03:20;;;;;;;5.17;4.77;;;20.40;99.90;;;;;;5072816;28;20470;-68
2022/09/11 10:05:47;;;;;;;6.60;6.00;;;20.60;99.90;;;;;;5073161;28;20924;-68
2022/09/11 10:08:35;;;;;;;6.03;5.53;;;20.60;99.90;;;;;;5073146;28;20470;-68
2022/09/11 10:11:12;;;;;;;6.27;5.67;;;20.70;99.90;;;;;;5072947;28;20767;-68
2022/09/11 10:13:41;;;;;;;6.83;6.07;;;20.60;99.90;;;;;;5072475;28;20435;-68
2022/09/11 10:16:24;;;;;;;6.10;5.60;;;20.70;99.90;;;;;;5073222;28;20428;-68
2022/09/11 10:18:52;;;;;;;6.10;5.50;;;20.80;99.90;;;;;;5073297;28;20381;-68
2022/09/11 10:21:35;;;;;;;5.63;5.13;;;20.70;99.90;;;;;;5073086;28;20400;-68
2022/09/11 10:24:02;;;;;;;5.53;5.03;;;21.20;99.90;;;;;;5073586;28;20412;-68
2022/09/11 10:26:42;;;;;;;6.23;5.80;;;21.30;99.90;;;;;;5077002;28;20717;-68
2022/09/11 10:29:21;;;;;;;6.27;5.67;;;20.90;99.90;;;;;;5075712;28;20905;-68
2022/09/11 10:31:55;;;;;;;6.27;5.77;;;20.70;99.90;;;;;;5065169;28;20432;-68
2022/09/11 10:34:23;;;;;;;6.77;6.17;;;20.50;99.90;;;;;;5076728;28;20447;-68
2022/09/11 10:37:06;;;;;;;7.47;6.07;;;20.60;99.90;;;;;;5076677;28;20803;-68
2022/09/11 10:39:34;;;;;;;8.40;7.60;;;20.80;99.90;;;;;;5076731;28;20380;-68
2022/09/11 10:42:11;;;;;;;7.00;6.40;;;21.00;99.90;;;;;;5076703;28;20400;-68
2022/09/11 10:44:41;;;;;;;7.10;6.47;;;21.60;99.90;;;;;;5076363;28;20420;-68
2022/09/11 10:47:22;;;;;;;5.97;5.50;;;21.60;99.90;;;;;;5076310;28;20423;-68
2022/09/11 10:49:48;;;;;;;7.23;6.50;;;21.70;99.90;;;;;;5076643;28;20446;-68
2022/09/11 10:52:14;;;;;;;9.07;5.90;;;21.40;99.90;;;;;;5076242;28;20538;-68
2022/09/11 10:54:52;;;;;;;6.03;5.60;;;21.40;99.90;;;;;;5076441;28;20511;-68
2022/09/11 10:57:22;;;;;;;6.53;5.80;;;21.50;99.90;;;;;;5076149;28;20600;-68
2022/09/11 11:00:14;;;;;;;6.40;5.90;;;22.40;99.90;;;;;;5075343;28;20462;-68
2022/09/11 11:02:53;;;;;;;6.13;5.53;;;23.10;99.90;;;;;;5076062;28;20424;-68
2022/09/11 11:05:39;;;;;;;6.47;5.87;;;24.20;99.90;;;;;;5076464;28;20748;-68
2022/09/11 11:08:10;;;;;;;5.60;5.10;;;25.70;99.90;;;;;;5076315;28;20502;-68
2022/09/11 11:11:14;;;;;;;6.07;5.57;;;26.00;99.90;;;;;;5075904;28;20932;-68
2022/09/11 11:14:03;;;;;;;5.50;5.10;;;26.20;99.20;;;;;;5075563;28;20463;-68
2022/09/11 11:16:43;;;;;;;6.00;5.00;;;26.00;98.30;;;;;;5075381;28;20399;-69
2022/09/11 11:19:14;;;;;;;5.13;4.73;;;25.20;99.00;;;;;;5075800;28;20816;-67
2022/09/11 11:21:59;;;;;;;5.03;4.63;;;23.90;99.90;;;;;;5075974;28;20407;-68
2022/09/11 11:25:06;;;;;;;5.80;5.30;;;23.10;99.90;;;;;;5075855;28;20408;-68
2022/09/11 11:27:48;;;;;;;5.07;4.67;;;22.80;99.90;;;;;;5060345;28;20419;-67
2022/09/11 11:30:19;;;;;;;5.17;4.77;;;23.00;99.90;;;;;;5074312;28;20415;-68
2022/09/11 11:32:58;;;;;;;5.50;5.10;;;22.50;99.90;;;;;;5075537;28;20891;-68
2022/09/11 11:35:32;;;;;;;7.70;5.77;;;22.40;99.90;;;;;;5074894;28;20428;-68
2022/09/11 11:38:24;;;;;;;5.80;5.30;;;22.20;99.90;;;;;;5075402;28;20391;-68
2022/09/11 11:41:08;;;;;;;4.90;4.50;;;22.20;99.90;;;;;;5075466;28;20424;-68
2022/09/11 11:43:38;;;;;;;5.40;5.00;;;23.40;99.90;;;;;;5075262;28;20447;-68
2022/09/11 11:46:19;;;;;;;6.13;5.63;;;25.60;99.90;;;;;;5075092;28;20814;-68
2022/09/11 11:48:48;;;;;;;4.67;4.27;;;26.60;97.60;;;;;;5075665;28;20756;-68
2022/09/11 11:51:17;;;;;;;5.60;5.00;;;27.30;96.50;;;;;;5075164;28;20408;-69
2022/09/11 11:53:58;;;;;;;4.43;4.03;;;27.40;95.20;;;;;;5075018;28;20516;-69
2022/09/11 11:56:34;;;;;;;4.60;4.10;;;28.80;92.70;;;;;;5075316;28;20381;-69
2022/09/11 11:59:14;;;;;;;4.17;3.77;;;30.20;88.20;;;;;;5074986;28;20388;-69
2022/09/11 12:01:49;;;;;;;4.27;3.87;;;28.90;90.70;;;;;;5074765;28;20388;-69
2022/09/11 12:04:33;;;;;;;3.83;3.53;;;28.70;89.90;;;;;;5075138;28;20431;-69
2022/09/11 12:07:00;;;;;;;3.70;3.33;;;28.20;90.30;;;;;;5074887;28;20384;-69
2022/09/11 12:09:26;;;;;;;3.97;3.67;;;28.30;90.20;;;;;;5074848;28;20837;-69
2022/09/11 12:11:54;;;;;;;3.60;3.30;;;27.90;90.20;;;;;;5074492;28;20965;-69
2022/09/11 12:14:34;;;;;;;2.80;2.60;;;;;;;;;;5074606;28;20778;-68
2022/09/11 12:17:35;;;;;;;3.43;3.20;;;;;;;;;;5074240;28;20365;-69
2022/09/11 12:20:10;;;;;;;4.17;3.87;;;;;;;;;;5061051;28;20792;-69
2022/09/11 12:22:39;;;;;;;4.60;4.30;;;;;;;;;;5070290;28;20439;-68
2022/09/11 12:25:26;;;;;;;4.17;3.77;;;;;;;;;;5073998;28;20396;-69
2022/09/11 12:27:54;;;;;;;3.90;3.60;;;;;;;;;;5074350;28;20763;-69
2022/09/11 12:30:22;;;;;;;3.63;3.33;;;;;;;;;;5073156;28;20408;-68
2022/09/11 12:32:50;;;;;;;5.07;3.30;;;;;;;;;;5072826;28;20464;-68
2022/09/11 12:35:37;;;;;;;3.83;3.53;;;;;;;;;;5074184;28;20473;-69
2022/09/11 12:38:13;;;;;;;3.53;3.33;;;;;;;;;;5073976;28;20416;-69
2022/09/11 12:40:39;;;;;;;5.17;4.77;;;;;;;;;;5074173;28;20384;-69
2022/09/11 12:43:34;;;;;;;5.03;4.63;;;;;;;;;;5074473;28;20420;-69
2022/09/11 12:46:01;;;;;;;6.50;5.90;;;;;;;;;;5073697;28;20416;-69
2022/09/11 12:48:37;;;;;;;6.07;5.50;;;;;;;;;;5075120;28;20403;-68
2022/09/11 12:51:06;;;;;;;6.00;5.50;;;;;;;;;;5074228;28;20404;-68
2022/09/11 12:53:33;;;;;;;5.87;5.27;;;;;;;;;;5073787;28;20551;-68
2022/09/11 12:55:59;;;;;;;6.23;5.73;;;;;;;;;;5074011;28;20396;-68
2022/09/11 12:58:29;;;;;;;6.10;5.60;;;;;;;;;;5086779;22;20985;-71
2022/09/11 13:01:22;;;;;;;6.50;5.73;;;;;;;;;;5060636;28;20491;-70
2022/09/11 13:03:48;;;;;;;5.40;5.00;;;;;;;;;;5069329;28;20532;-70
2022/09/11 13:06:15;;;;;;;5.80;5.30;;;;;;;;;;5073959;28;20834;-70
2022/09/11 13:08:51;;;;;;;5.53;5.13;;;;;;;;;;5074294;28;20423;-70
2022/09/11 13:11:37;;;;;;;6.20;5.70;;;;;;;;;;5073919;28;20384;-70
2022/09/11 13:14:05;;;;;;;5.30;4.90;;;;;;;;;;5044585;28;20857;-70
2022/09/11 13:16:33;;;;;;;6.50;5.90;;;;;;;;;;5053909;28;20405;-70
2022/09/11 13:19:13;;;;;;;5.17;4.73;;;;;;;;;;5053989;28;20504;-70
2022/09/11 13:21:40;;;;;;;5.83;5.40;;;;;;;;;;5053933;28;20402;-70